createdAt,value
2022-12-31T00:00:52.665Z,100186.00
2022-12-31T00:03:20.765Z,100180.78
2022-12-31T00:05:50.263Z,100187.69
2022-12-31T00:08:18.331Z,100192.88
2022-12-31T00:10:46.404Z,100197.22
2022-12-31T00:13:15.029Z,100196.22
2022-12-31T00:15:44.721Z,100204.81
2022-12-31T00:18:13.089Z,100199.25
2022-12-31T00:20:42.846Z,100197.72
2022-12-31T00:23:12.535Z,100212.16
2022-12-31T00:25:40.562Z,100220.06
2022-12-31T00:28:08.615Z,100219.38
2022-12-31T00:30:36.600Z,100223.72
2022-12-31T00:33:04.769Z,100225.41
2022-12-31T00:35:34.659Z,100218.66
2022-12-31T00:38:02.674Z,100212.66
2022-12-31T00:40:32.071Z,100209.47
2022-12-31T00:43:00.000Z,100202.09
2022-12-31T00:45:27.994Z,100204.28
2022-12-31T00:47:55.985Z,100210.16
2022-12-31T00:50:23.960Z,100211.31
2022-12-31T00:52:51.843Z,100211.16
2022-12-31T00:55:19.960Z,100213.34
2022-12-31T00:57:49.272Z,100221.88
2022-12-31T01:00:18.142Z,100228.63
2022-12-31T01:02:46.233Z,100242.41
2022-12-31T01:05:14.336Z,100244.72
2022-12-31T01:07:42.346Z,100249.25
2022-12-31T01:10:11.512Z,100259.00
2022-12-31T01:12:39.441Z,100245.56
2022-12-31T01:15:10.019Z,100260.84
2022-12-31T01:17:38.058Z,100252.25
2022-12-31T01:20:07.274Z,100251.75
2022-12-31T01:22:35.306Z,100255.81
2022-12-31T01:25:03.366Z,100268.34
2022-12-31T01:27:31.373Z,100259.63
2022-12-31T01:29:59.303Z,100259.47
2022-12-31T01:32:28.726Z,100262.13
2022-12-31T01:34:56.677Z,100270.31
2022-12-31T01:37:25.156Z,100276.38
2022-12-31T01:39:53.085Z,100282.41
2022-12-31T01:42:21.170Z,100288.47
2022-12-31T01:44:54.529Z,100285.56
2022-12-31T01:47:36.705Z,100285.53
2022-12-31T01:50:13.864Z,100290.94
2022-12-31T01:52:47.199Z,100291.72
2022-12-31T01:55:21.256Z,100287.03
2022-12-31T01:57:53.606Z,100285.19
2022-12-31T02:00:21.951Z,100280.97
2022-12-31T02:02:51.920Z,100279.56
2022-12-31T02:05:27.038Z,100292.03
2022-12-31T02:07:56.145Z,100299.44
2022-12-31T02:10:24.323Z,100299.34
2022-12-31T02:12:53.730Z,100293.81
2022-12-31T02:15:30.361Z,100291.75
2022-12-31T02:18:15.179Z,100304.41
2022-12-31T02:21:41.070Z,100297.81
2022-12-31T02:24:51.328Z,100285.00
2022-12-31T02:27:38.972Z,100291.53
2022-12-31T02:30:14.641Z,100293.63
2022-12-31T02:33:14.231Z,100287.00
2022-12-31T02:35:50.944Z,100296.44
2022-12-31T02:38:25.736Z,100288.84
2022-12-31T02:40:55.476Z,100279.94
2022-12-31T02:43:23.563Z,100278.25
2022-12-31T02:46:08.282Z,100286.41
2022-12-31T02:48:50.901Z,100292.75
2022-12-31T02:51:37.111Z,100287.38
2022-12-31T02:54:22.884Z,100288.03
2022-12-31T02:57:06.971Z,100285.72
2022-12-31T03:00:00.445Z,100288.78
2022-12-31T03:02:34.240Z,100278.50
2022-12-31T03:05:04.431Z,100273.53
2022-12-31T03:07:34.189Z,100270.25
2022-12-31T03:10:03.427Z,100264.75
2022-12-31T03:12:47.902Z,100273.31
2022-12-31T03:15:23.098Z,100268.47
2022-12-31T03:18:00.038Z,100276.00
2022-12-31T03:20:50.521Z,100271.47
2022-12-31T03:23:23.176Z,100281.88
2022-12-31T03:25:50.714Z,100264.66
2022-12-31T03:28:21.618Z,100264.47
2022-12-31T03:30:53.610Z,100261.28
2022-12-31T03:33:24.444Z,100265.25
2022-12-31T03:35:54.076Z,100264.28
2022-12-31T03:38:22.126Z,100273.41
2022-12-31T03:40:53.569Z,100271.19
2022-12-31T03:43:22.040Z,100270.81
2022-12-31T03:45:52.500Z,100262.38
2022-12-31T03:48:24.150Z,100264.28
2022-12-31T03:50:52.901Z,100261.47
2022-12-31T03:53:21.550Z,100243.25
2022-12-31T03:55:53.010Z,100240.94
2022-12-31T03:58:21.955Z,100238.59
2022-12-31T04:00:50.924Z,100233.69
2022-12-31T04:03:19.092Z,100239.97
2022-12-31T04:05:54.285Z,100246.13
2022-12-31T04:08:22.335Z,100247.16
2022-12-31T04:10:50.438Z,100252.91
2022-12-31T04:13:18.497Z,100248.13
2022-12-31T04:15:46.472Z,100252.19
2022-12-31T04:18:14.456Z,100248.38
2022-12-31T04:20:42.426Z,100249.56
2022-12-31T04:23:11.754Z,100249.91
2022-12-31T04:25:39.739Z,100251.56
2022-12-31T04:28:07.750Z,100254.41
2022-12-31T04:30:35.813Z,100270.56
2022-12-31T04:33:03.934Z,100257.06
2022-12-31T04:35:31.913Z,100257.72
2022-12-31T04:37:59.905Z,100244.59
2022-12-31T04:40:29.300Z,100246.47
2022-12-31T04:42:57.343Z,100249.44
2022-12-31T04:45:25.323Z,100241.56
2022-12-31T04:47:53.320Z,100238.53
2022-12-31T04:50:21.451Z,100227.31
2022-12-31T04:52:49.452Z,100211.16
2022-12-31T04:55:17.686Z,100203.72
2022-12-31T04:57:47.052Z,100210.59
2022-12-31T05:00:15.995Z,100206.94
2022-12-31T05:02:44.220Z,100201.00
2022-12-31T05:05:12.259Z,100196.97
2022-12-31T05:07:40.377Z,100195.69
2022-12-31T05:10:10.221Z,100195.88
2022-12-31T05:12:38.196Z,100198.84
2022-12-31T05:15:09.667Z,100214.91
2022-12-31T05:17:37.685Z,100209.53
2022-12-31T05:20:07.783Z,100212.31
2022-12-31T05:22:35.845Z,100225.25
2022-12-31T05:25:04.017Z,100218.91
2022-12-31T05:27:32.096Z,100208.81
2022-12-31T05:30:01.087Z,100208.38
2022-12-31T05:32:30.517Z,100213.09
2022-12-31T05:34:59.706Z,100210.50
2022-12-31T05:37:28.872Z,100215.78
2022-12-31T05:39:57.188Z,100212.50
2022-12-31T05:42:25.736Z,100209.69
2022-12-31T05:44:53.794Z,100199.28
2022-12-31T05:47:22.152Z,100192.34
2022-12-31T05:49:51.525Z,100187.41
2022-12-31T05:52:20.096Z,100177.19
2022-12-31T05:54:48.384Z,100171.81
2022-12-31T05:57:16.660Z,100174.50
2022-12-31T05:59:44.737Z,100166.25
2022-12-31T06:02:12.837Z,100159.16
2022-12-31T06:04:40.962Z,100150.41
2022-12-31T06:07:10.453Z,100153.78
2022-12-31T06:09:38.546Z,100152.31
2022-12-31T06:12:07.770Z,100147.19
2022-12-31T06:14:39.553Z,100132.59
2022-12-31T06:17:10.272Z,100139.78
2022-12-31T06:19:38.368Z,100154.53
2022-12-31T06:22:06.375Z,100141.25
2022-12-31T06:24:35.805Z,100131.13
2022-12-31T06:27:03.858Z,100137.72
2022-12-31T06:29:31.832Z,100142.28
2022-12-31T06:31:59.797Z,100138.88
2022-12-31T06:34:27.776Z,100131.41
2022-12-31T06:36:55.752Z,100133.38
2022-12-31T06:39:23.792Z,100125.41
2022-12-31T06:41:53.299Z,100132.66
2022-12-31T06:44:22.527Z,100132.56
2022-12-31T06:46:50.832Z,100131.88
2022-12-31T06:49:19.049Z,100129.00
2022-12-31T06:51:47.759Z,100119.16
2022-12-31T06:54:16.043Z,100112.81
2022-12-31T06:56:45.074Z,100117.63
2022-12-31T06:59:28.350Z,100123.22
2022-12-31T07:02:15.465Z,100121.41
2022-12-31T07:05:10.082Z,100117.06
2022-12-31T07:07:56.329Z,100112.75
2022-12-31T07:10:40.107Z,100112.28
2022-12-31T07:13:39.817Z,100111.53
2022-12-31T07:16:20.812Z,100097.72
2022-12-31T07:18:59.157Z,100110.63
2022-12-31T07:21:36.655Z,100111.09
2022-12-31T07:24:07.889Z,100111.03
2022-12-31T07:27:05.417Z,100107.69
2022-12-31T07:30:02.598Z,100104.03
2022-12-31T07:33:00.009Z,100115.53
2022-12-31T07:35:43.018Z,100115.38
2022-12-31T07:38:26.020Z,100105.59
2022-12-31T07:41:09.964Z,100105.03
2022-12-31T07:43:54.934Z,100109.63
2022-12-31T07:46:37.565Z,100107.50
2022-12-31T07:49:15.163Z,100115.00
2022-12-31T07:51:43.877Z,100128.97
2022-12-31T07:54:14.248Z,100134.91
2022-12-31T07:56:44.032Z,100137.00
2022-12-31T07:59:33.491Z,100151.13
2022-12-31T08:02:14.458Z,100136.22
2022-12-31T08:04:59.034Z,100148.84
2022-12-31T08:07:41.678Z,100145.91
2022-12-31T08:10:20.318Z,100148.44
2022-12-31T08:12:51.287Z,100139.75
2022-12-31T08:17:56.037Z,100158.09
2022-12-31T08:20:26.876Z,100158.53
2022-12-31T08:23:25.576Z,100155.00
2022-12-31T08:26:20.281Z,100148.59
2022-12-31T08:29:27.565Z,100148.53
2022-12-31T08:32:08.334Z,100144.19
2022-12-31T08:34:50.925Z,100147.34
2022-12-31T08:37:32.185Z,100164.84
2022-12-31T08:40:24.260Z,100166.97
2022-12-31T08:43:31.089Z,100149.44
2022-12-31T08:46:01.087Z,100157.00
2022-12-31T08:48:39.739Z,100164.06
2022-12-31T08:51:15.659Z,100171.38
2022-12-31T08:53:45.934Z,100166.03
2022-12-31T08:56:29.929Z,100160.59
2022-12-31T08:59:16.620Z,100150.84
2022-12-31T09:02:09.297Z,100153.34
2022-12-31T09:04:56.277Z,100165.47
2022-12-31T09:07:36.688Z,100159.66
2022-12-31T09:10:19.377Z,100156.13
2022-12-31T09:13:02.089Z,100155.06
2022-12-31T09:15:41.111Z,100161.97
2022-12-31T09:18:12.803Z,100165.09
2022-12-31T09:20:43.350Z,100160.59
2022-12-31T09:23:14.385Z,100159.53
2022-12-31T09:26:11.610Z,100160.97
2022-12-31T09:28:55.062Z,100164.78
2022-12-31T09:31:35.768Z,100156.81
2022-12-31T09:34:17.329Z,100157.03
2022-12-31T09:36:51.685Z,100166.84
2022-12-31T09:39:34.003Z,100176.44
2022-12-31T09:42:37.775Z,100189.97
2022-12-31T09:45:40.050Z,100185.59
2022-12-31T09:48:59.671Z,100180.81
2022-12-31T09:51:32.474Z,100201.84
2022-12-31T09:54:53.468Z,100193.41
2022-12-31T09:57:41.272Z,100191.81
2022-12-31T10:00:31.944Z,100181.56
2022-12-31T10:03:30.957Z,100199.91
2022-12-31T10:06:24.113Z,100202.56
2022-12-31T10:09:21.997Z,100204.19
2022-12-31T10:12:19.990Z,100202.34
2022-12-31T10:15:17.609Z,100215.84
2022-12-31T10:18:02.547Z,100225.72
2022-12-31T10:20:56.005Z,100226.47
2022-12-31T10:24:00.933Z,100241.88
2022-12-31T10:27:02.708Z,100241.44
2022-12-31T10:29:46.502Z,100251.41
2022-12-31T10:32:31.407Z,100247.66
2022-12-31T10:35:16.357Z,100261.19
2022-12-31T10:37:58.944Z,100264.09
2022-12-31T10:40:48.337Z,100258.94
2022-12-31T10:43:54.127Z,100263.84
2022-12-31T10:47:06.510Z,100258.41
2022-12-31T10:50:24.240Z,100267.22
2022-12-31T10:53:55.132Z,100264.66
2022-12-31T10:57:07.981Z,100264.66
2022-12-31T11:00:13.398Z,100268.63
2022-12-31T11:03:38.010Z,100269.59
2022-12-31T11:06:56.969Z,100279.91
2022-12-31T11:10:15.581Z,100288.44
2022-12-31T11:14:00.925Z,100292.94
2022-12-31T11:17:01.339Z,100290.16
2022-12-31T11:19:39.938Z,100286.94
2022-12-31T11:22:36.879Z,100291.47
2022-12-31T11:25:27.474Z,100274.34
2022-12-31T11:28:18.781Z,100263.38
2022-12-31T11:31:11.836Z,100259.13
2022-12-31T11:34:02.259Z,100243.59
2022-12-31T11:36:45.522Z,100238.47
2022-12-31T11:39:35.529Z,100234.09
2022-12-31T11:42:20.373Z,100229.38
2022-12-31T11:44:58.568Z,100232.97
2022-12-31T11:48:28.675Z,100230.13
2022-12-31T11:50:50.011Z,100234.38
2022-12-31T11:53:43.769Z,100232.81
2022-12-31T11:56:19.206Z,100239.53
2022-12-31T11:58:52.213Z,100232.06
2022-12-31T12:01:26.134Z,100228.53
2022-12-31T12:03:54.530Z,100220.03
2022-12-31T12:06:30.395Z,100225.03
2022-12-31T12:09:05.500Z,100220.50
2022-12-31T12:11:40.267Z,100216.16
2022-12-31T12:14:21.648Z,100217.72
2022-12-31T12:17:00.888Z,100215.44
2022-12-31T12:19:35.920Z,100225.25
2022-12-31T12:22:12.908Z,100214.00
2022-12-31T12:24:41.068Z,100211.25
2022-12-31T12:27:25.536Z,100211.00
2022-12-31T12:29:53.640Z,100211.56
2022-12-31T12:32:25.782Z,100211.38
2022-12-31T12:34:54.575Z,100205.09
2022-12-31T12:37:33.374Z,100200.81
2022-12-31T12:40:04.771Z,100200.94
2022-12-31T12:42:34.334Z,100189.84
2022-12-31T12:45:05.801Z,100191.13
2022-12-31T12:47:36.125Z,100193.59
2022-12-31T12:50:06.265Z,100185.78
2022-12-31T12:53:05.640Z,100199.81
2022-12-31T12:55:47.820Z,100185.78
2022-12-31T12:58:38.055Z,100182.78
2022-12-31T13:01:25.070Z,100181.31
2022-12-31T13:04:35.737Z,100194.09
2022-12-31T13:07:25.000Z,100189.06
2022-12-31T13:10:14.476Z,100186.41
2022-12-31T13:15:53.453Z,100193.47
2022-12-31T13:18:48.362Z,100186.75
2022-12-31T13:21:44.060Z,100201.34
2022-12-31T13:24:29.917Z,100199.25
2022-12-31T13:27:14.392Z,100197.53
2022-12-31T13:29:47.940Z,100198.00
2022-12-31T13:32:24.433Z,100203.63
2022-12-31T13:35:01.614Z,100194.44
2022-12-31T13:37:38.819Z,100214.09
2022-12-31T13:40:22.181Z,100203.63
2022-12-31T13:43:01.520Z,100224.19
2022-12-31T13:45:38.175Z,100222.66
2022-12-31T13:48:15.456Z,100243.06
2022-12-31T13:50:52.813Z,100240.28
2022-12-31T13:53:30.448Z,100256.63
2022-12-31T13:56:05.028Z,100269.00
2022-12-31T13:58:43.765Z,100276.75
2022-12-31T14:01:21.407Z,100294.34
2022-12-31T14:04:00.757Z,100297.13
2022-12-31T14:06:39.642Z,100315.66
2022-12-31T14:09:10.350Z,100333.25
2022-12-31T14:12:13.473Z,100343.09
2022-12-31T14:14:53.246Z,100347.94
2022-12-31T14:17:26.603Z,100356.28
2022-12-31T14:20:12.237Z,100356.66
2022-12-31T14:22:51.189Z,100364.44
2022-12-31T14:25:27.646Z,100366.78
2022-12-31T14:27:59.198Z,100367.59
2022-12-31T14:30:34.122Z,100355.72
2022-12-31T14:33:18.426Z,100350.28
2022-12-31T14:36:28.989Z,100355.28
2022-12-31T14:39:21.143Z,100361.16
2022-12-31T14:42:07.305Z,100363.88
2022-12-31T14:44:57.947Z,100386.22
2022-12-31T14:47:46.486Z,100388.75
2022-12-31T14:50:22.561Z,100385.22
2022-12-31T14:52:55.543Z,100382.72
2022-12-31T14:55:30.270Z,100374.97
2022-12-31T15:00:57.580Z,100377.28
2022-12-31T15:03:37.828Z,100375.81
2022-12-31T15:06:40.158Z,100367.44
2022-12-31T15:09:32.858Z,100383.94
2022-12-31T15:12:21.614Z,100383.13
2022-12-31T15:15:19.038Z,100386.81
2022-12-31T15:18:05.971Z,100375.97
2022-12-31T15:21:23.915Z,100374.72
2022-12-31T15:23:52.167Z,100368.88
2022-12-31T15:26:28.697Z,100377.88
2022-12-31T15:29:05.139Z,100382.66
2022-12-31T15:31:36.659Z,100375.31
2022-12-31T15:34:07.891Z,100391.41
2022-12-31T15:36:39.449Z,100380.13
2022-12-31T15:39:26.757Z,100369.25
2022-12-31T15:44:52.894Z,100377.88
2022-12-31T15:47:30.915Z,100382.28
2022-12-31T15:50:04.371Z,100381.00
2022-12-31T15:52:43.111Z,100377.25
2022-12-31T15:55:26.133Z,100383.72
2022-12-31T15:58:02.215Z,100383.13
2022-12-31T16:00:51.977Z,100373.50
2022-12-31T16:03:23.527Z,100391.06
2022-12-31T16:05:53.293Z,100388.09
2022-12-31T16:08:26.728Z,100387.66
2022-12-31T16:10:56.640Z,100399.38
2022-12-31T16:13:29.400Z,100404.78
2022-12-31T16:16:05.242Z,100393.50
2022-12-31T16:18:41.153Z,100410.84
2022-12-31T16:21:29.898Z,100408.13
2022-12-31T16:24:01.270Z,100415.03
2022-12-31T16:26:40.551Z,100416.53
2022-12-31T16:29:16.147Z,100407.91
2022-12-31T16:31:45.677Z,100423.19
2022-12-31T16:34:18.514Z,100413.34
2022-12-31T16:36:58.205Z,100420.25
2022-12-31T16:39:32.725Z,100417.53
2022-12-31T16:42:21.015Z,100424.25
2022-12-31T16:44:52.415Z,100426.97
2022-12-31T16:47:24.944Z,100423.19
2022-12-31T16:50:04.045Z,100429.47
2022-12-31T16:52:38.276Z,100435.31
2022-12-31T16:55:11.387Z,100430.75
2022-12-31T16:57:40.007Z,100422.13
2022-12-31T17:00:20.820Z,100419.41
2022-12-31T17:03:02.619Z,100429.47
2022-12-31T17:05:32.626Z,100425.69
2022-12-31T17:08:23.823Z,100421.09
2022-12-31T17:10:52.187Z,100422.78
2022-12-31T17:13:32.676Z,100435.94
2022-12-31T17:16:03.112Z,100427.34
2022-12-31T17:18:39.659Z,100420.69
2022-12-31T17:21:11.542Z,100425.25
2022-12-31T17:23:42.377Z,100426.25
2022-12-31T17:26:15.129Z,100435.69
2022-12-31T17:28:47.226Z,100437.34
2022-12-31T17:31:38.329Z,100440.69
2022-12-31T17:34:24.969Z,100442.78
2022-12-31T17:37:00.420Z,100432.78
2022-12-31T17:39:42.950Z,100440.72
2022-12-31T17:42:12.003Z,100443.22
2022-12-31T17:44:44.084Z,100439.03
2022-12-31T17:47:17.166Z,100451.56
2022-12-31T17:49:47.167Z,100445.28
2022-12-31T17:52:17.356Z,100438.19
2022-12-31T17:54:45.319Z,100433.41
2022-12-31T17:57:27.474Z,100438.19
2022-12-31T17:59:55.848Z,100448.03
2022-12-31T18:02:25.658Z,100450.75
2022-12-31T18:04:54.171Z,100449.06
2022-12-31T18:07:22.244Z,100448.22
2022-12-31T18:09:50.374Z,100437.56
2022-12-31T18:12:20.182Z,100439.66
2022-12-31T18:14:47.983Z,100452.41
2022-12-31T18:17:17.200Z,100443.66
2022-12-31T18:20:04.212Z,100451.19
2022-12-31T18:22:33.710Z,100443.69
2022-12-31T18:25:02.038Z,100454.56
2022-12-31T18:27:30.685Z,100454.34
2022-12-31T18:30:04.281Z,100473.78
2022-12-31T18:32:34.396Z,100471.06
2022-12-31T18:35:04.129Z,100466.06
2022-12-31T18:37:38.224Z,100475.47
2022-12-31T18:40:07.750Z,100469.59
2022-12-31T18:42:35.696Z,100471.91
2022-12-31T18:45:03.935Z,100475.47
2022-12-31T18:47:37.449Z,100479.03
2022-12-31T18:50:08.962Z,100466.69
2022-12-31T18:52:36.879Z,100469.63
2022-12-31T18:55:23.518Z,100463.97
2022-12-31T18:57:51.628Z,100470.25
2022-12-31T19:00:20.435Z,100472.34
2022-12-31T19:02:48.468Z,100466.25
2022-12-31T19:05:28.461Z,100461.03
2022-12-31T19:07:57.651Z,100467.50
2022-12-31T19:10:26.927Z,100465.44
2022-12-31T19:12:55.293Z,100466.06
2022-12-31T19:15:37.518Z,100465.63
2022-12-31T19:18:07.721Z,100464.59
2022-12-31T19:20:41.057Z,100460.19
2022-12-31T19:23:18.482Z,100468.34
2022-12-31T19:25:48.646Z,100466.69
2022-12-31T19:28:19.361Z,100460.63
2022-12-31T19:30:47.646Z,100462.72
2022-12-31T19:33:16.814Z,100462.09
2022-12-31T19:35:49.758Z,100461.25
2022-12-31T19:38:22.836Z,100453.94
2022-12-31T19:40:53.232Z,100455.41
2022-12-31T19:43:28.444Z,100452.06
2022-12-31T19:46:01.644Z,100452.28
2022-12-31T19:48:32.810Z,100456.66
2022-12-31T19:51:04.853Z,100456.66
2022-12-31T19:53:32.896Z,100454.59
2022-12-31T19:56:03.208Z,100452.69
2022-12-31T19:58:34.164Z,100451.22
2022-12-31T20:01:05.135Z,100463.53
2022-12-31T20:03:34.310Z,100451.66
2022-12-31T20:06:10.264Z,100461.25
2022-12-31T20:08:43.301Z,100460.44
2022-12-31T20:11:14.063Z,100474.00
2022-12-31T20:13:43.364Z,100467.53
2022-12-31T20:16:15.349Z,100472.09
2022-12-31T20:18:47.818Z,100464.38
2022-12-31T20:21:22.734Z,100470.25
2022-12-31T20:23:54.557Z,100464.59
2022-12-31T20:26:28.057Z,100465.44
2022-12-31T20:28:55.990Z,100474.41
2022-12-31T20:31:26.500Z,100463.97
2022-12-31T20:33:55.262Z,100467.53
2022-12-31T20:36:25.770Z,100468.16
2022-12-31T20:38:53.847Z,100477.78
2022-12-31T20:41:24.862Z,100473.78
2022-12-31T20:43:53.217Z,100465.03
2022-12-31T20:46:25.293Z,100463.75
2022-12-31T20:48:56.722Z,100464.63
2022-12-31T20:51:29.389Z,100454.16
2022-12-31T20:54:00.885Z,100460.00
2022-12-31T20:56:31.811Z,100472.31
2022-12-31T20:59:00.012Z,100473.38
2022-12-31T21:01:41.792Z,100474.81
2022-12-31T21:04:16.920Z,100458.31
2022-12-31T21:06:47.899Z,100469.22
2022-12-31T21:09:18.083Z,100465.84
2022-12-31T21:12:03.410Z,100467.09
2022-12-31T21:14:34.280Z,100468.97
2022-12-31T21:17:02.247Z,100477.13
2022-12-31T21:19:30.217Z,100472.09
2022-12-31T21:21:59.574Z,100481.94
2022-12-31T21:24:27.571Z,100469.38
2022-12-31T21:26:56.843Z,100463.09
2022-12-31T21:29:25.705Z,100462.47
2022-12-31T21:31:54.936Z,100451.38
2022-12-31T21:34:22.936Z,100470.81
2022-12-31T21:36:50.944Z,100463.53
2022-12-31T21:39:20.297Z,100474.19
2022-12-31T21:41:54.485Z,100472.09
2022-12-31T21:44:24.847Z,100475.03
2022-12-31T21:47:35.349Z,100479.19
2022-12-31T21:50:06.382Z,100489.25
2022-12-31T21:52:35.202Z,100482.34
2022-12-31T21:55:24.611Z,100485.91
2022-12-31T22:00:59.430Z,100452.03
2022-12-31T22:03:34.600Z,100455.16
2022-12-31T22:06:10.052Z,100472.94
2022-12-31T22:08:39.682Z,100486.34
2022-12-31T22:11:10.000Z,100486.34
2022-12-31T22:13:39.220Z,100488.81
2022-12-31T22:16:09.332Z,100489.03
2022-12-31T22:18:40.470Z,100494.69
2022-12-31T22:21:18.187Z,100495.94
2022-12-31T22:23:50.484Z,100505.97
2022-12-31T22:26:22.290Z,100505.13
2022-12-31T22:28:51.141Z,100507.84
2022-12-31T22:31:22.738Z,100507.66
2022-12-31T22:33:51.530Z,100529.81
2022-12-31T22:36:21.934Z,100536.94
2022-12-31T22:38:52.188Z,100524.81
2022-12-31T22:41:23.569Z,100527.53
2022-12-31T22:44:02.555Z,100520.19
2022-12-31T22:46:31.377Z,100536.31
2022-12-31T22:49:01.794Z,100539.44
2022-12-31T22:51:55.794Z,100536.09
2022-12-31T22:54:19.121Z,100542.34
2022-12-31T22:56:48.466Z,100541.53
2022-12-31T22:59:16.485Z,100543.63
2022-12-31T23:01:44.714Z,100527.31
2022-12-31T23:04:13.160Z,100527.31
2022-12-31T23:06:44.439Z,100531.91
2022-12-31T23:09:31.527Z,100534.41
2022-12-31T23:12:01.655Z,100535.69
2022-12-31T23:14:47.179Z,100539.03
2022-12-31T23:17:36.965Z,100554.06
2022-12-31T23:20:24.323Z,100548.84
2022-12-31T23:23:08.820Z,100540.28
2022-12-31T23:25:39.793Z,100546.13
2022-12-31T23:28:12.938Z,100551.13
2022-12-31T23:30:42.606Z,100538.78
2022-12-31T23:33:19.653Z,100543.78
2022-12-31T23:35:48.816Z,100545.69
2022-12-31T23:38:19.391Z,100545.06
2022-12-31T23:40:47.550Z,100542.34
2022-12-31T23:43:23.289Z,100546.50
2022-12-31T23:45:52.035Z,100550.03
2022-12-31T23:48:20.206Z,100541.50
2022-12-31T23:50:53.975Z,100554.66
2022-12-31T23:53:23.147Z,100563.22
2022-12-31T23:55:51.577Z,100569.91
2022-12-31T23:58:23.119Z,100575.97
